sensor_id;sensor_type;location;lat;lon;timestamp;temperature;humidity
83283;DHT22;73190;50.780;5.658;2023-12-22T00:00:34;9.80;79.20
83283;DHT22;73190;50.780;5.658;2023-12-22T00:03:02;9.70;79.00
83283;DHT22;73190;50.780;5.658;2023-12-22T00:05:29;9.90;79.00
83283;DHT22;73190;50.780;5.658;2023-12-22T00:07:56;10.00;77.60
83283;DHT22;73190;50.780;5.658;2023-12-22T00:10:22;9.60;79.60
83283;DHT22;73190;50.780;5.658;2023-12-22T00:12:49;9.30;81.90
83283;DHT22;73190;50.780;5.658;2023-12-22T00:15:16;9.10;85.20
83283;DHT22;73190;50.780;5.658;2023-12-22T00:17:43;8.80;86.90
83283;DHT22;73190;50.780;5.658;2023-12-22T00:20:10;8.50;89.00
83283;DHT22;73190;50.780;5.658;2023-12-22T00:22:39;8.30;89.80
83283;DHT22;73190;50.780;5.658;2023-12-22T00:25:06;8.20;90.70
83283;DHT22;73190;50.780;5.658;2023-12-22T00:27:34;8.30;90.50
83283;DHT22;73190;50.780;5.658;2023-12-22T00:30:01;8.20;90.80
83283;DHT22;73190;50.780;5.658;2023-12-22T00:32:28;8.30;90.90
83283;DHT22;73190;50.780;5.658;2023-12-22T00:34:55;8.40;91.10
83283;DHT22;73190;50.780;5.658;2023-12-22T00:37:23;8.50;91.00
83283;DHT22;73190;50.780;5.658;2023-12-22T00:39:50;8.50;91.00
83283;DHT22;73190;50.780;5.658;2023-12-22T00:42:17;8.50;90.80
83283;DHT22;73190;50.780;5.658;2023-12-22T00:44:44;8.50;90.70
83283;DHT22;73190;50.780;5.658;2023-12-22T00:47:11;8.60;90.30
83283;DHT22;73190;50.780;5.658;2023-12-22T00:49:38;8.70;90.10
83283;DHT22;73190;50.780;5.658;2023-12-22T00:52:05;8.70;90.00
83283;DHT22;73190;50.780;5.658;2023-12-22T00:54:32;8.80;89.30
83283;DHT22;73190;50.780;5.658;2023-12-22T00:57:00;8.80;89.60
83283;DHT22;73190;50.780;5.658;2023-12-22T00:59:27;8.90;88.70
83283;DHT22;73190;50.780;5.658;2023-12-22T01:01:54;8.80;88.90
83283;DHT22;73190;50.780;5.658;2023-12-22T01:04:21;8.80;88.90
83283;DHT22;73190;50.780;5.658;2023-12-22T01:06:48;9.00;88.20
83283;DHT22;73190;50.780;5.658;2023-12-22T01:09:14;9.00;87.80
83283;DHT22;73190;50.780;5.658;2023-12-22T01:11:41;9.00;87.00
83283;DHT22;73190;50.780;5.658;2023-12-22T01:14:08;9.10;87.00
83283;DHT22;73190;50.780;5.658;2023-12-22T01:16:35;9.10;85.30
83283;DHT22;73190;50.780;5.658;2023-12-22T01:19:02;9.20;86.00
83283;DHT22;73190;50.780;5.658;2023-12-22T01:21:28;9.20;84.50
83283;DHT22;73190;50.780;5.658;2023-12-22T01:23:55;9.20;85.10
83283;DHT22;73190;50.780;5.658;2023-12-22T01:26:23;9.20;83.90
83283;DHT22;73190;50.780;5.658;2023-12-22T01:28:50;9.30;83.00
83283;DHT22;73190;50.780;5.658;2023-12-22T01:31:17;9.40;81.70
83283;DHT22;73190;50.780;5.658;2023-12-22T01:33:43;9.30;82.70
83283;DHT22;73190;50.780;5.658;2023-12-22T01:36:10;9.20;82.30
83283;DHT22;73190;50.780;5.658;2023-12-22T01:38:37;9.30;81.60
83283;DHT22;73190;50.780;5.658;2023-12-22T01:41:04;9.40;80.50
83283;DHT22;73190;50.780;5.658;2023-12-22T01:43:31;9.50;80.70
83283;DHT22;73190;50.780;5.658;2023-12-22T01:45:58;9.50;79.40
83283;DHT22;73190;50.780;5.658;2023-12-22T01:48:26;9.60;79.90
83283;DHT22;73190;50.780;5.658;2023-12-22T01:50:54;9.60;80.30
83283;DHT22;73190;50.780;5.658;2023-12-22T01:53:21;9.70;80.00
83283;DHT22;73190;50.780;5.658;2023-12-22T01:55:50;9.80;79.50
83283;DHT22;73190;50.780;5.658;2023-12-22T01:58:18;9.70;80.30
83283;DHT22;73190;50.780;5.658;2023-12-22T02:00:45;9.70;78.60
83283;DHT22;73190;50.780;5.658;2023-12-22T02:03:12;9.70;80.10
83283;DHT22;73190;50.780;5.658;2023-12-22T02:05:43;9.80;80.00
83283;DHT22;73190;50.780;5.658;2023-12-22T02:08:14;9.80;80.70
83283;DHT22;73190;50.780;5.658;2023-12-22T02:10:41;9.80;79.90
83283;DHT22;73190;50.780;5.658;2023-12-22T02:13:08;9.80;80.10
83283;DHT22;73190;50.780;5.658;2023-12-22T02:15:35;9.90;80.60
83283;DHT22;73190;50.780;5.658;2023-12-22T02:18:04;9.90;80.30
83283;DHT22;73190;50.780;5.658;2023-12-22T02:20:31;9.90;81.60
83283;DHT22;73190;50.780;5.658;2023-12-22T02:22:58;9.90;80.30
83283;DHT22;73190;50.780;5.658;2023-12-22T02:25:25;9.80;82.20
83283;DHT22;73190;50.780;5.658;2023-12-22T02:28:02;9.80;82.20
83283;DHT22;73190;50.780;5.658;2023-12-22T02:30:26;9.80;81.10
83283;DHT22;73190;50.780;5.658;2023-12-22T02:32:55;9.90;81.80
83283;DHT22;73190;50.780;5.658;2023-12-22T02:35:23;10.00;80.00
83283;DHT22;73190;50.780;5.658;2023-12-22T02:37:50;9.90;80.70
83283;DHT22;73190;50.780;5.658;2023-12-22T02:40:17;9.80;80.80
83283;DHT22;73190;50.780;5.658;2023-12-22T02:42:45;9.80;81.60
83283;DHT22;73190;50.780;5.658;2023-12-22T02:45:13;9.80;80.60
83283;DHT22;73190;50.780;5.658;2023-12-22T02:47:40;9.90;80.70
83283;DHT22;73190;50.780;5.658;2023-12-22T02:50:08;9.80;81.70
83283;DHT22;73190;50.780;5.658;2023-12-22T02:52:35;9.70;82.90
83283;DHT22;73190;50.780;5.658;2023-12-22T02:55:02;9.70;82.80
83283;DHT22;73190;50.780;5.658;2023-12-22T02:57:29;9.50;83.50
83283;DHT22;73190;50.780;5.658;2023-12-22T02:59:56;9.40;84.50
83283;DHT22;73190;50.780;5.658;2023-12-22T03:02:23;9.40;85.70
83283;DHT22;73190;50.780;5.658;2023-12-22T03:04:50;9.50;84.50
83283;DHT22;73190;50.780;5.658;2023-12-22T03:07:17;9.50;84.70
83283;DHT22;73190;50.780;5.658;2023-12-22T03:09:44;9.50;85.30
83283;DHT22;73190;50.780;5.658;2023-12-22T03:12:11;9.40;84.90
83283;DHT22;73190;50.780;5.658;2023-12-22T03:14:38;9.50;84.50
83283;DHT22;73190;50.780;5.658;2023-12-22T03:17:05;9.40;84.20
83283;DHT22;73190;50.780;5.658;2023-12-22T03:19:32;9.30;85.30
83283;DHT22;73190;50.780;5.658;2023-12-22T03:21:59;9.20;85.70
83283;DHT22;73190;50.780;5.658;2023-12-22T03:24:26;9.50;84.20
83283;DHT22;73190;50.780;5.658;2023-12-22T03:26:54;9.60;83.50
83283;DHT22;73190;50.780;5.658;2023-12-22T03:29:21;9.60;83.40
83283;DHT22;73190;50.780;5.658;2023-12-22T03:31:48;9.60;82.80
83283;DHT22;73190;50.780;5.658;2023-12-22T03:34:14;9.50;82.90
83283;DHT22;73190;50.780;5.658;2023-12-22T03:36:41;9.60;81.80
83283;DHT22;73190;50.780;5.658;2023-12-22T03:39:08;9.70;82.20
83283;DHT22;73190;50.780;5.658;2023-12-22T03:41:35;9.50;82.90
83283;DHT22;73190;50.780;5.658;2023-12-22T03:44:02;9.60;83.40
83283;DHT22;73190;50.780;5.658;2023-12-22T03:46:28;9.60;83.30
83283;DHT22;73190;50.780;5.658;2023-12-22T03:48:55;9.60;83.10
83283;DHT22;73190;50.780;5.658;2023-12-22T03:51:23;9.60;83.60
83283;DHT22;73190;50.780;5.658;2023-12-22T03:53:50;9.60;82.00
83283;DHT22;73190;50.780;5.658;2023-12-22T03:56:17;9.40;83.20
83283;DHT22;73190;50.780;5.658;2023-12-22T03:58:44;9.40;83.30
83283;DHT22;73190;50.780;5.658;2023-12-22T04:01:13;9.50;82.90
83283;DHT22;73190;50.780;5.658;2023-12-22T04:03:40;9.70;81.10
83283;DHT22;73190;50.780;5.658;2023-12-22T04:06:06;9.80;80.90
83283;DHT22;73190;50.780;5.658;2023-12-22T04:08:33;9.80;80.50
83283;DHT22;73190;50.780;5.658;2023-12-22T04:11:00;9.80;80.20
83283;DHT22;73190;50.780;5.658;2023-12-22T04:13:27;9.80;80.60
83283;DHT22;73190;50.780;5.658;2023-12-22T04:15:54;9.80;80.10
83283;DHT22;73190;50.780;5.658;2023-12-22T04:18:21;9.90;79.50
83283;DHT22;73190;50.780;5.658;2023-12-22T04:20:47;9.90;79.50
83283;DHT22;73190;50.780;5.658;2023-12-22T04:23:16;9.80;78.30
83283;DHT22;73190;50.780;5.658;2023-12-22T04:25:43;9.90;78.70
83283;DHT22;73190;50.780;5.658;2023-12-22T04:28:10;10.00;79.20
83283;DHT22;73190;50.780;5.658;2023-12-22T04:33:23;9.80;79.00
83283;DHT22;73190;50.780;5.658;2023-12-22T04:35:49;9.80;79.20
83283;DHT22;73190;50.780;5.658;2023-12-22T04:38:16;9.90;77.60
83283;DHT22;73190;50.780;5.658;2023-12-22T04:40:43;9.80;79.10
83283;DHT22;73190;50.780;5.658;2023-12-22T04:43:10;9.80;79.70
83283;DHT22;73190;50.780;5.658;2023-12-22T04:45:37;9.80;80.70
83283;DHT22;73190;50.780;5.658;2023-12-22T04:48:04;9.80;78.90
83283;DHT22;73190;50.780;5.658;2023-12-22T04:50:31;9.90;80.50
83283;DHT22;73190;50.780;5.658;2023-12-22T04:52:57;9.80;79.70
83283;DHT22;73190;50.780;5.658;2023-12-22T04:55:24;9.80;80.00
83283;DHT22;73190;50.780;5.658;2023-12-22T04:57:51;9.70;80.70
83283;DHT22;73190;50.780;5.658;2023-12-22T05:00:18;9.60;81.10
83283;DHT22;73190;50.780;5.658;2023-12-22T05:02:45;9.60;81.60
83283;DHT22;73190;50.780;5.658;2023-12-22T05:05:12;9.60;82.10
83283;DHT22;73190;50.780;5.658;2023-12-22T05:07:38;9.80;82.30
83283;DHT22;73190;50.780;5.658;2023-12-22T05:10:06;9.70;83.00
83283;DHT22;73190;50.780;5.658;2023-12-22T05:12:33;9.70;82.70
83283;DHT22;73190;50.780;5.658;2023-12-22T05:15:00;9.70;82.80
83283;DHT22;73190;50.780;5.658;2023-12-22T05:17:27;9.60;82.00
83283;DHT22;73190;50.780;5.658;2023-12-22T05:19:54;9.70;82.80
83283;DHT22;73190;50.780;5.658;2023-12-22T05:22:20;9.80;82.40
83283;DHT22;73190;50.780;5.658;2023-12-22T05:24:47;9.80;81.90
83283;DHT22;73190;50.780;5.658;2023-12-22T05:27:14;9.80;82.00
83283;DHT22;73190;50.780;5.658;2023-12-22T05:29:41;9.80;81.80
83283;DHT22;73190;50.780;5.658;2023-12-22T05:32:08;9.70;82.00
83283;DHT22;73190;50.780;5.658;2023-12-22T05:34:35;9.70;83.30
83283;DHT22;73190;50.780;5.658;2023-12-22T05:37:02;9.70;83.00
83283;DHT22;73190;50.780;5.658;2023-12-22T05:39:29;9.90;81.60
83283;DHT22;73190;50.780;5.658;2023-12-22T05:41:56;10.00;81.60
83283;DHT22;73190;50.780;5.658;2023-12-22T05:44:23;9.80;82.30
83283;DHT22;73190;50.780;5.658;2023-12-22T05:46:50;9.80;82.80
83283;DHT22;73190;50.780;5.658;2023-12-22T05:49:17;9.80;84.30
83283;DHT22;73190;50.780;5.658;2023-12-22T05:51:44;9.60;86.90
83283;DHT22;73190;50.780;5.658;2023-12-22T05:54:10;9.40;88.90
83283;DHT22;73190;50.780;5.658;2023-12-22T05:56:37;9.40;88.60
83283;DHT22;73190;50.780;5.658;2023-12-22T05:59:04;9.40;88.30
83283;DHT22;73190;50.780;5.658;2023-12-22T06:01:31;9.40;88.20
83283;DHT22;73190;50.780;5.658;2023-12-22T06:03:58;9.40;87.70
83283;DHT22;73190;50.780;5.658;2023-12-22T06:06:25;9.40;88.20
83283;DHT22;73190;50.780;5.658;2023-12-22T06:08:53;9.40;88.50
83283;DHT22;73190;50.780;5.658;2023-12-22T06:11:20;9.40;88.20
83283;DHT22;73190;50.780;5.658;2023-12-22T06:13:47;9.50;87.60
83283;DHT22;73190;50.780;5.658;2023-12-22T06:16:14;9.30;88.50
83283;DHT22;73190;50.780;5.658;2023-12-22T06:18:41;9.30;88.40
83283;DHT22;73190;50.780;5.658;2023-12-22T06:21:08;9.40;88.10
83283;DHT22;73190;50.780;5.658;2023-12-22T06:23:36;9.40;87.90
83283;DHT22;73190;50.780;5.658;2023-12-22T06:26:10;9.30;88.40
83283;DHT22;73190;50.780;5.658;2023-12-22T06:28:37;9.40;87.70
83283;DHT22;73190;50.780;5.658;2023-12-22T06:31:06;9.50;87.10
83283;DHT22;73190;50.780;5.658;2023-12-22T06:33:32;9.50;86.90
83283;DHT22;73190;50.780;5.658;2023-12-22T06:35:59;9.40;87.10
83283;DHT22;73190;50.780;5.658;2023-12-22T06:38:26;9.40;87.60
83283;DHT22;73190;50.780;5.658;2023-12-22T06:40:53;9.40;87.60
83283;DHT22;73190;50.780;5.658;2023-12-22T06:43:21;9.20;88.90
83283;DHT22;73190;50.780;5.658;2023-12-22T06:45:47;9.10;89.00
83283;DHT22;73190;50.780;5.658;2023-12-22T06:48:14;9.10;89.00
83283;DHT22;73190;50.780;5.658;2023-12-22T06:50:41;9.00;89.10
83283;DHT22;73190;50.780;5.658;2023-12-22T06:53:10;9.10;89.20
83283;DHT22;73190;50.780;5.658;2023-12-22T06:55:37;9.10;89.20
83283;DHT22;73190;50.780;5.658;2023-12-22T06:58:04;9.20;89.40
83283;DHT22;73190;50.780;5.658;2023-12-22T07:00:31;9.30;88.70
83283;DHT22;73190;50.780;5.658;2023-12-22T07:02:57;9.20;88.90
83283;DHT22;73190;50.780;5.658;2023-12-22T07:05:31;9.10;88.70
83283;DHT22;73190;50.780;5.658;2023-12-22T07:07:58;9.20;89.60
83283;DHT22;73190;50.780;5.658;2023-12-22T07:10:25;9.20;89.20
83283;DHT22;73190;50.780;5.658;2023-12-22T07:12:52;9.20;89.20
83283;DHT22;73190;50.780;5.658;2023-12-22T07:15:18;9.30;89.40
83283;DHT22;73190;50.780;5.658;2023-12-22T07:17:45;9.20;89.50
83283;DHT22;73190;50.780;5.658;2023-12-22T07:20:12;9.10;90.20
83283;DHT22;73190;50.780;5.658;2023-12-22T07:22:39;9.20;90.10
83283;DHT22;73190;50.780;5.658;2023-12-22T07:25:06;9.10;89.80
83283;DHT22;73190;50.780;5.658;2023-12-22T07:27:34;9.10;90.00
83283;DHT22;73190;50.780;5.658;2023-12-22T07:30:01;9.10;89.80
83283;DHT22;73190;50.780;5.658;2023-12-22T07:32:27;9.00;89.90
83283;DHT22;73190;50.780;5.658;2023-12-22T07:34:55;9.10;89.70
83283;DHT22;73190;50.780;5.658;2023-12-22T07:37:22;9.10;89.70
83283;DHT22;73190;50.780;5.658;2023-12-22T07:39:49;9.10;89.40
83283;DHT22;73190;50.780;5.658;2023-12-22T07:42:16;9.20;88.80
83283;DHT22;73190;50.780;5.658;2023-12-22T07:44:43;9.30;88.70
83283;DHT22;73190;50.780;5.658;2023-12-22T07:47:09;9.20;88.10
83283;DHT22;73190;50.780;5.658;2023-12-22T07:49:36;9.20;87.90
83283;DHT22;73190;50.780;5.658;2023-12-22T07:52:03;9.20;88.40
83283;DHT22;73190;50.780;5.658;2023-12-22T07:54:30;9.10;89.40
83283;DHT22;73190;50.780;5.658;2023-12-22T07:56:57;9.10;89.50
83283;DHT22;73190;50.780;5.658;2023-12-22T07:59:24;9.30;88.40
83283;DHT22;73190;50.780;5.658;2023-12-22T08:01:51;9.40;88.10
83283;DHT22;73190;50.780;5.658;2023-12-22T08:04:18;9.30;87.80
83283;DHT22;73190;50.780;5.658;2023-12-22T08:06:45;9.20;88.80
83283;DHT22;73190;50.780;5.658;2023-12-22T08:09:12;9.20;89.50
83283;DHT22;73190;50.780;5.658;2023-12-22T08:11:39;9.20;89.00
83283;DHT22;73190;50.780;5.658;2023-12-22T08:14:06;9.20;88.40
83283;DHT22;73190;50.780;5.658;2023-12-22T08:16:33;9.30;88.70
83283;DHT22;73190;50.780;5.658;2023-12-22T08:18:59;9.40;88.40
83283;DHT22;73190;50.780;5.658;2023-12-22T08:21:26;9.50;87.80
83283;DHT22;73190;50.780;5.658;2023-12-22T08:23:53;9.50;88.10
83283;DHT22;73190;50.780;5.658;2023-12-22T08:26:20;9.40;88.30
83283;DHT22;73190;50.780;5.658;2023-12-22T08:28:47;9.40;89.20
83283;DHT22;73190;50.780;5.658;2023-12-22T08:31:14;9.50;89.00
83283;DHT22;73190;50.780;5.658;2023-12-22T08:33:41;9.60;88.20
83283;DHT22;73190;50.780;5.658;2023-12-22T08:36:09;9.70;88.00
83283;DHT22;73190;50.780;5.658;2023-12-22T08:38:36;9.60;89.00
83283;DHT22;73190;50.780;5.658;2023-12-22T08:41:08;9.50;90.00
83283;DHT22;73190;50.780;5.658;2023-12-22T08:43:36;9.60;90.10
83283;DHT22;73190;50.780;5.658;2023-12-22T08:46:04;9.70;89.90
83283;DHT22;73190;50.780;5.658;2023-12-22T08:48:31;9.80;89.70
83283;DHT22;73190;50.780;5.658;2023-12-22T08:50:58;9.80;90.20
83283;DHT22;73190;50.780;5.658;2023-12-22T08:53:25;9.80;89.90
83283;DHT22;73190;50.780;5.658;2023-12-22T08:55:51;9.80;90.20
83283;DHT22;73190;50.780;5.658;2023-12-22T08:58:18;9.60;90.60
83283;DHT22;73190;50.780;5.658;2023-12-22T09:00:45;9.70;90.60
83283;DHT22;73190;50.780;5.658;2023-12-22T09:03:12;9.50;91.20
83283;DHT22;73190;50.780;5.658;2023-12-22T09:05:39;9.40;91.60
83283;DHT22;73190;50.780;5.658;2023-12-22T09:08:05;9.30;91.80
83283;DHT22;73190;50.780;5.658;2023-12-22T09:10:32;9.30;92.10
83283;DHT22;73190;50.780;5.658;2023-12-22T09:12:59;9.50;91.70
83283;DHT22;73190;50.780;5.658;2023-12-22T09:15:26;9.60;91.50
83283;DHT22;73190;50.780;5.658;2023-12-22T09:17:53;9.40;91.90
83283;DHT22;73190;50.780;5.658;2023-12-22T09:20:22;9.30;92.10
83283;DHT22;73190;50.780;5.658;2023-12-22T09:22:49;9.50;91.80
83283;DHT22;73190;50.780;5.658;2023-12-22T09:25:16;9.50;91.80
83283;DHT22;73190;50.780;5.658;2023-12-22T09:27:42;9.40;92.00
83283;DHT22;73190;50.780;5.658;2023-12-22T09:30:09;9.40;92.00
83283;DHT22;73190;50.780;5.658;2023-12-22T09:32:36;9.30;92.30
83283;DHT22;73190;50.780;5.658;2023-12-22T09:35:03;9.20;92.80
83283;DHT22;73190;50.780;5.658;2023-12-22T09:37:30;9.40;92.60
83283;DHT22;73190;50.780;5.658;2023-12-22T09:39:57;9.40;92.80
83283;DHT22;73190;50.780;5.658;2023-12-22T09:42:24;9.40;92.80
83283;DHT22;73190;50.780;5.658;2023-12-22T09:44:53;9.50;92.80
83283;DHT22;73190;50.780;5.658;2023-12-22T09:47:20;9.40;92.80
83283;DHT22;73190;50.780;5.658;2023-12-22T09:49:47;9.50;92.80
83283;DHT22;73190;50.780;5.658;2023-12-22T09:52:15;9.50;92.70
83283;DHT22;73190;50.780;5.658;2023-12-22T09:54:42;9.60;92.70
83283;DHT22;73190;50.780;5.658;2023-12-22T09:57:09;9.70;92.50
83283;DHT22;73190;50.780;5.658;2023-12-22T09:59:36;9.80;92.40
83283;DHT22;73190;50.780;5.658;2023-12-22T10:02:04;9.80;92.20
83283;DHT22;73190;50.780;5.658;2023-12-22T10:04:32;10.00;92.00
83283;DHT22;73190;50.780;5.658;2023-12-22T10:06:59;10.00;92.30
83283;DHT22;73190;50.780;5.658;2023-12-22T10:09:27;9.90;92.70
83283;DHT22;73190;50.780;5.658;2023-12-22T10:11:54;9.90;92.60
83283;DHT22;73190;50.780;5.658;2023-12-22T10:14:22;10.00;92.50
83283;DHT22;73190;50.780;5.658;2023-12-22T10:16:50;10.00;92.50
83283;DHT22;73190;50.780;5.658;2023-12-22T10:19:17;10.10;92.60
83283;DHT22;73190;50.780;5.658;2023-12-22T10:21:44;10.10;92.40
83283;DHT22;73190;50.780;5.658;2023-12-22T10:26:56;10.30;92.00
83283;DHT22;73190;50.780;5.658;2023-12-22T10:29:23;10.40;91.80
83283;DHT22;73190;50.780;5.658;2023-12-22T10:31:50;10.50;91.80
83283;DHT22;73190;50.780;5.658;2023-12-22T10:34:17;10.40;91.80
83283;DHT22;73190;50.780;5.658;2023-12-22T10:36:44;10.30;92.10
83283;DHT22;73190;50.780;5.658;2023-12-22T10:39:10;10.40;92.10
83283;DHT22;73190;50.780;5.658;2023-12-22T10:41:37;10.40;92.00
83283;DHT22;73190;50.780;5.658;2023-12-22T10:44:05;10.30;92.20
83283;DHT22;73190;50.780;5.658;2023-12-22T10:46:32;10.30;92.20
83283;DHT22;73190;50.780;5.658;2023-12-22T10:49:01;10.40;92.10
83283;DHT22;73190;50.780;5.658;2023-12-22T10:51:30;10.50;92.00
83283;DHT22;73190;50.780;5.658;2023-12-22T10:53:58;10.60;92.00
83283;DHT22;73190;50.780;5.658;2023-12-22T10:56:25;10.70;91.40
83283;DHT22;73190;50.780;5.658;2023-12-22T10:58:54;10.70;91.40
83283;DHT22;73190;50.780;5.658;2023-12-22T11:01:21;10.70;91.60
83283;DHT22;73190;50.780;5.658;2023-12-22T11:03:50;10.70;91.80
83283;DHT22;73190;50.780;5.658;2023-12-22T11:06:17;10.60;92.10
83283;DHT22;73190;50.780;5.658;2023-12-22T11:08:43;10.40;92.00
83283;DHT22;73190;50.780;5.658;2023-12-22T11:11:13;10.80;91.50
83283;DHT22;73190;50.780;5.658;2023-12-22T11:13:39;10.70;91.50
83283;DHT22;73190;50.780;5.658;2023-12-22T11:16:06;10.60;91.70
83283;DHT22;73190;50.780;5.658;2023-12-22T11:18:39;10.50;92.10
83283;DHT22;73190;50.780;5.658;2023-12-22T11:21:02;10.50;92.40
83283;DHT22;73190;50.780;5.658;2023-12-22T11:23:30;10.50;92.20
83283;DHT22;73190;50.780;5.658;2023-12-22T11:25:58;10.70;91.70
83283;DHT22;73190;50.780;5.658;2023-12-22T11:28:25;10.60;91.90
83283;DHT22;73190;50.780;5.658;2023-12-22T11:30:52;10.60;92.10
83283;DHT22;73190;50.780;5.658;2023-12-22T11:33:20;10.50;92.50
83283;DHT22;73190;50.780;5.658;2023-12-22T11:35:48;10.50;92.30
83283;DHT22;73190;50.780;5.658;2023-12-22T11:38:16;10.50;92.10
83283;DHT22;73190;50.780;5.658;2023-12-22T11:40:44;10.70;92.00
83283;DHT22;73190;50.780;5.658;2023-12-22T11:43:11;10.80;91.50
83283;DHT22;73190;50.780;5.658;2023-12-22T11:45:38;10.80;91.30
83283;DHT22;73190;50.780;5.658;2023-12-22T11:48:08;10.80;91.30
83283;DHT22;73190;50.780;5.658;2023-12-22T11:50:35;10.90;91.30
83283;DHT22;73190;50.780;5.658;2023-12-22T11:53:29;10.80;91.40
83283;DHT22;73190;50.780;5.658;2023-12-22T11:56:04;10.90;91.10
83283;DHT22;73190;50.780;5.658;2023-12-22T12:01:04;10.90;91.10
83283;DHT22;73190;50.780;5.658;2023-12-22T12:03:31;10.90;91.20
83283;DHT22;73190;50.780;5.658;2023-12-22T12:06:11;10.80;91.10
83283;DHT22;73190;50.780;5.658;2023-12-22T12:08:38;10.80;91.30
83283;DHT22;73190;50.780;5.658;2023-12-22T12:11:05;10.70;91.30
83283;DHT22;73190;50.780;5.658;2023-12-22T12:13:32;10.70;91.60
83283;DHT22;73190;50.780;5.658;2023-12-22T12:16:00;10.90;90.90
83283;DHT22;73190;50.780;5.658;2023-12-22T12:18:30;10.90;90.90
83283;DHT22;73190;50.780;5.658;2023-12-22T12:20:59;10.80;91.20
83283;DHT22;73190;50.780;5.658;2023-12-22T12:23:27;10.80;91.10
83283;DHT22;73190;50.780;5.658;2023-12-22T12:25:54;10.90;90.90
83283;DHT22;73190;50.780;5.658;2023-12-22T12:28:32;11.00;90.60
83283;DHT22;73190;50.780;5.658;2023-12-22T12:30:59;11.00;90.40
83283;DHT22;73190;50.780;5.658;2023-12-22T12:33:27;11.00;90.30
83283;DHT22;73190;50.780;5.658;2023-12-22T12:35:55;11.00;90.60
83283;DHT22;73190;50.780;5.658;2023-12-22T12:38:23;10.90;91.00
83283;DHT22;73190;50.780;5.658;2023-12-22T12:40:51;10.80;91.10
83283;DHT22;73190;50.780;5.658;2023-12-22T12:43:17;10.80;91.40
83283;DHT22;73190;50.780;5.658;2023-12-22T12:45:44;10.80;91.30
83283;DHT22;73190;50.780;5.658;2023-12-22T12:48:11;10.80;91.90
83283;DHT22;73190;50.780;5.658;2023-12-22T12:50:40;10.80;91.70
83283;DHT22;73190;50.780;5.658;2023-12-22T12:53:07;10.90;91.40
83283;DHT22;73190;50.780;5.658;2023-12-22T12:55:34;10.90;91.20
83283;DHT22;73190;50.780;5.658;2023-12-22T12:58:00;10.80;91.60
83283;DHT22;73190;50.780;5.658;2023-12-22T13:00:28;10.80;91.60
83283;DHT22;73190;50.780;5.658;2023-12-22T13:02:55;10.80;91.60
83283;DHT22;73190;50.780;5.658;2023-12-22T13:05:23;10.80;91.40
83283;DHT22;73190;50.780;5.658;2023-12-22T13:07:50;10.70;91.70
83283;DHT22;73190;50.780;5.658;2023-12-22T13:10:23;10.90;91.20
83283;DHT22;73190;50.780;5.658;2023-12-22T13:12:51;11.00;90.80
83283;DHT22;73190;50.780;5.658;2023-12-22T13:15:20;11.10;90.40
83283;DHT22;73190;50.780;5.658;2023-12-22T13:17:47;11.00;90.60
83283;DHT22;73190;50.780;5.658;2023-12-22T13:20:14;11.00;90.90
83283;DHT22;73190;50.780;5.658;2023-12-22T13:22:41;10.90;90.90
83283;DHT22;73190;50.780;5.658;2023-12-22T13:25:08;11.00;90.70
83283;DHT22;73190;50.780;5.658;2023-12-22T13:27:45;11.00;90.90
83283;DHT22;73190;50.780;5.658;2023-12-22T13:32:57;11.00;90.60
83283;DHT22;73190;50.780;5.658;2023-12-22T13:35:24;11.00;90.40
83283;DHT22;73190;50.780;5.658;2023-12-22T13:37:52;11.00;90.30
83283;DHT22;73190;50.780;5.658;2023-12-22T13:40:20;11.00;90.40
83283;DHT22;73190;50.780;5.658;2023-12-22T13:42:54;10.80;90.60
83283;DHT22;73190;50.780;5.658;2023-12-22T13:45:21;10.80;90.90
83283;DHT22;73190;50.780;5.658;2023-12-22T13:47:48;10.90;90.40
83283;DHT22;73190;50.780;5.658;2023-12-22T13:50:15;10.90;90.50
83283;DHT22;73190;50.780;5.658;2023-12-22T13:52:42;10.90;90.40
83283;DHT22;73190;50.780;5.658;2023-12-22T13:55:15;10.90;90.70
83283;DHT22;73190;50.780;5.658;2023-12-22T13:57:42;11.00;90.50
83283;DHT22;73190;50.780;5.658;2023-12-22T14:02:47;11.10;90.20
83283;DHT22;73190;50.780;5.658;2023-12-22T14:05:16;11.20;89.90
83283;DHT22;73190;50.780;5.658;2023-12-22T14:07:44;11.20;89.70
83283;DHT22;73190;50.780;5.658;2023-12-22T14:10:11;11.10;90.40
83283;DHT22;73190;50.780;5.658;2023-12-22T14:12:38;11.00;90.50
83283;DHT22;73190;50.780;5.658;2023-12-22T14:15:05;11.00;90.90
83283;DHT22;73190;50.780;5.658;2023-12-22T14:17:32;11.00;90.40
83283;DHT22;73190;50.780;5.658;2023-12-22T14:19:59;11.10;90.40
83283;DHT22;73190;50.780;5.658;2023-12-22T14:22:26;11.00;90.20
83283;DHT22;73190;50.780;5.658;2023-12-22T14:24:53;11.00;90.80
83283;DHT22;73190;50.780;5.658;2023-12-22T14:27:22;10.90;90.80
83283;DHT22;73190;50.780;5.658;2023-12-22T14:29:48;11.10;90.40
83283;DHT22;73190;50.780;5.658;2023-12-22T14:32:15;11.00;90.40
83283;DHT22;73190;50.780;5.658;2023-12-22T14:34:44;11.10;90.30
83283;DHT22;73190;50.780;5.658;2023-12-22T14:37:11;11.00;90.30
83283;DHT22;73190;50.780;5.658;2023-12-22T14:39:37;11.10;90.40
83283;DHT22;73190;50.780;5.658;2023-12-22T14:42:04;10.90;90.50
83283;DHT22;73190;50.780;5.658;2023-12-22T14:44:32;10.90;90.70
83283;DHT22;73190;50.780;5.658;2023-12-22T14:46:59;10.90;90.60
83283;DHT22;73190;50.780;5.658;2023-12-22T14:49:25;10.90;90.70
83283;DHT22;73190;50.780;5.658;2023-12-22T14:51:52;11.00;90.40
83283;DHT22;73190;50.780;5.658;2023-12-22T14:54:20;11.10;90.00
83283;DHT22;73190;50.780;5.658;2023-12-22T14:56:49;11.00;90.20
83283;DHT22;73190;50.780;5.658;2023-12-22T14:59:16;10.90;90.10
83283;DHT22;73190;50.780;5.658;2023-12-22T15:01:43;10.90;90.40
83283;DHT22;73190;50.780;5.658;2023-12-22T15:04:12;10.90;90.30
83283;DHT22;73190;50.780;5.658;2023-12-22T15:06:39;11.00;90.20
83283;DHT22;73190;50.780;5.658;2023-12-22T15:09:06;11.00;90.30
83283;DHT22;73190;50.780;5.658;2023-12-22T15:11:33;11.00;90.20
83283;DHT22;73190;50.780;5.658;2023-12-22T15:14:00;10.90;90.50
83283;DHT22;73190;50.780;5.658;2023-12-22T15:16:27;10.90;90.70
83283;DHT22;73190;50.780;5.658;2023-12-22T15:18:54;10.90;90.80
83283;DHT22;73190;50.780;5.658;2023-12-22T15:21:21;10.80;91.00
83283;DHT22;73190;50.780;5.658;2023-12-22T15:23:49;10.90;90.70
83283;DHT22;73190;50.780;5.658;2023-12-22T15:26:19;10.90;90.40
83283;DHT22;73190;50.780;5.658;2023-12-22T15:28:47;10.90;90.40
83283;DHT22;73190;50.780;5.658;2023-12-22T15:31:14;10.80;90.40
83283;DHT22;73190;50.780;5.658;2023-12-22T15:33:41;10.80;90.80
83283;DHT22;73190;50.780;5.658;2023-12-22T15:36:07;10.90;90.80
83283;DHT22;73190;50.780;5.658;2023-12-22T15:38:34;10.90;90.60
83283;DHT22;73190;50.780;5.658;2023-12-22T15:41:01;10.80;90.80
83283;DHT22;73190;50.780;5.658;2023-12-22T15:43:29;10.80;91.00
83283;DHT22;73190;50.780;5.658;2023-12-22T15:45:56;10.60;91.40
83283;DHT22;73190;50.780;5.658;2023-12-22T15:48:23;10.50;91.90
83283;DHT22;73190;50.780;5.658;2023-12-22T15:50:49;10.70;91.20
83283;DHT22;73190;50.780;5.658;2023-12-22T15:53:16;10.70;91.00